sensor_id;sensor_type;location;lat;lon;timestamp;P1;durP1;ratioP1;P2;durP2;ratioP2
1336;SDS011;662;48.814;9.318;2022-10-13T00:00:39;19.17;;;15.40;;
1336;SDS011;662;48.814;9.318;2022-10-13T00:03:06;21.40;;;16.40;;
1336;SDS011;662;48.814;9.318;2022-10-13T00:05:32;17.50;;;15.70;;
1336;SDS011;662;48.814;9.318;2022-10-13T00:07:58;18.77;;;15.47;;
1336;SDS011;662;48.814;9.318;2022-10-13T00:10:24;23.10;;;16.37;;
1336;SDS011;662;48.814;9.318;2022-10-13T00:12:51;22.47;;;15.73;;
1336;SDS011;662;48.814;9.318;2022-10-13T00:15:17;23.63;;;15.97;;
1336;SDS011;662;48.814;9.318;2022-10-13T00:17:43;23.13;;;15.80;;
1336;SDS011;662;48.814;9.318;2022-10-13T00:20:09;17.43;;;15.60;;
1336;SDS011;662;48.814;9.318;2022-10-13T00:22:35;21.93;;;16.33;;
1336;SDS011;662;48.814;9.318;2022-10-13T00:25:02;26.43;;;16.80;;
1336;SDS011;662;48.814;9.318;2022-10-13T00:27:28;16.47;;;14.57;;
1336;SDS011;662;48.814;9.318;2022-10-13T00:29:53;20.33;;;14.73;;
1336;SDS011;662;48.814;9.318;2022-10-13T00:32:19;28.17;;;15.90;;
1336;SDS011;662;48.814;9.318;2022-10-13T00:34:44;23.17;;;16.50;;
1336;SDS011;662;48.814;9.318;2022-10-13T00:37:10;19.10;;;16.83;;
1336;SDS011;662;48.814;9.318;2022-10-13T00:39:36;23.23;;;16.80;;
1336;SDS011;662;48.814;9.318;2022-10-13T00:42:02;21.03;;;14.77;;
1336;SDS011;662;48.814;9.318;2022-10-13T00:47:19;18.67;;;14.57;;
1336;SDS011;662;48.814;9.318;2022-10-13T00:49:45;19.93;;;14.90;;
1336;SDS011;662;48.814;9.318;2022-10-13T00:52:12;17.00;;;14.73;;
1336;SDS011;662;48.814;9.318;2022-10-13T00:54:39;20.30;;;14.77;;
1336;SDS011;662;48.814;9.318;2022-10-13T00:57:04;22.27;;;14.80;;
1336;SDS011;662;48.814;9.318;2022-10-13T00:59:33;19.10;;;14.57;;
1336;SDS011;662;48.814;9.318;2022-10-13T01:01:59;15.97;;;14.30;;
1336;SDS011;662;48.814;9.318;2022-10-13T01:04:27;15.90;;;14.20;;
1336;SDS011;662;48.814;9.318;2022-10-13T01:06:57;14.93;;;13.43;;
1336;SDS011;662;48.814;9.318;2022-10-13T01:09:22;18.50;;;15.30;;
1336;SDS011;662;48.814;9.318;2022-10-13T01:14:42;18.27;;;13.77;;
1336;SDS011;662;48.814;9.318;2022-10-13T01:17:24;15.90;;;14.40;;
1336;SDS011;662;48.814;9.318;2022-10-13T01:31:54;16.20;;;14.13;;
1336;SDS011;662;48.814;9.318;2022-10-13T01:34:43;16.40;;;13.50;;
1336;SDS011;662;48.814;9.318;2022-10-13T01:40:01;15.83;;;13.67;;
1336;SDS011;662;48.814;9.318;2022-10-13T01:42:35;18.23;;;13.30;;
1336;SDS011;662;48.814;9.318;2022-10-13T01:45:20;24.47;;;15.40;;
1336;SDS011;662;48.814;9.318;2022-10-13T01:47:50;20.43;;;14.40;;
1336;SDS011;662;48.814;9.318;2022-10-13T01:50:16;19.13;;;15.00;;
1336;SDS011;662;48.814;9.318;2022-10-13T01:52:44;16.70;;;14.60;;
1336;SDS011;662;48.814;9.318;2022-10-13T01:55:11;17.70;;;14.90;;
1336;SDS011;662;48.814;9.318;2022-10-13T02:00:08;15.90;;;13.97;;
1336;SDS011;662;48.814;9.318;2022-10-13T02:02:45;15.10;;;13.60;;
1336;SDS011;662;48.814;9.318;2022-10-13T02:05:37;16.23;;;13.40;;
1336;SDS011;662;48.814;9.318;2022-10-13T02:11:13;15.73;;;14.03;;
1336;SDS011;662;48.814;9.318;2022-10-13T02:16:35;17.03;;;15.10;;
1336;SDS011;662;48.814;9.318;2022-10-13T02:19:04;19.13;;;16.03;;
1336;SDS011;662;48.814;9.318;2022-10-13T02:21:32;19.37;;;16.20;;
1336;SDS011;662;48.814;9.318;2022-10-13T02:23:59;19.90;;;15.40;;
1336;SDS011;662;48.814;9.318;2022-10-13T02:26:25;16.30;;;14.70;;
1336;SDS011;662;48.814;9.318;2022-10-13T02:28:51;17.60;;;14.83;;
1336;SDS011;662;48.814;9.318;2022-10-13T02:31:16;17.90;;;15.80;;
1336;SDS011;662;48.814;9.318;2022-10-13T02:33:42;20.10;;;15.07;;
1336;SDS011;662;48.814;9.318;2022-10-13T02:36:08;16.63;;;14.67;;
1336;SDS011;662;48.814;9.318;2022-10-13T02:38:33;17.10;;;15.30;;
1336;SDS011;662;48.814;9.318;2022-10-13T02:40:59;18.03;;;14.80;;
1336;SDS011;662;48.814;9.318;2022-10-13T02:43:26;16.23;;;14.60;;
1336;SDS011;662;48.814;9.318;2022-10-13T02:45:52;16.17;;;14.10;;
1336;SDS011;662;48.814;9.318;2022-10-13T02:48:17;22.63;;;16.70;;
1336;SDS011;662;48.814;9.318;2022-10-13T02:50:43;18.73;;;15.60;;
1336;SDS011;662;48.814;9.318;2022-10-13T02:53:09;15.20;;;13.60;;
1336;SDS011;662;48.814;9.318;2022-10-13T02:55:35;16.77;;;14.53;;
1336;SDS011;662;48.814;9.318;2022-10-13T02:58:01;18.00;;;14.30;;
1336;SDS011;662;48.814;9.318;2022-10-13T03:00:26;21.63;;;15.10;;
1336;SDS011;662;48.814;9.318;2022-10-13T03:02:52;16.00;;;14.50;;
1336;SDS011;662;48.814;9.318;2022-10-13T03:05:18;16.40;;;14.07;;
1336;SDS011;662;48.814;9.318;2022-10-13T03:07:43;19.30;;;15.40;;
1336;SDS011;662;48.814;9.318;2022-10-13T03:10:09;17.67;;;14.53;;
1336;SDS011;662;48.814;9.318;2022-10-13T03:12:34;20.03;;;14.80;;
1336;SDS011;662;48.814;9.318;2022-10-13T03:15:00;16.40;;;14.57;;
1336;SDS011;662;48.814;9.318;2022-10-13T03:17:25;16.10;;;14.50;;
1336;SDS011;662;48.814;9.318;2022-10-13T03:19:51;17.67;;;14.50;;
1336;SDS011;662;48.814;9.318;2022-10-13T03:22:17;15.67;;;14.00;;
1336;SDS011;662;48.814;9.318;2022-10-13T03:24:42;15.50;;;13.80;;
1336;SDS011;662;48.814;9.318;2022-10-13T03:27:08;17.10;;;15.27;;
1336;SDS011;662;48.814;9.318;2022-10-13T03:29:34;17.63;;;14.23;;
1336;SDS011;662;48.814;9.318;2022-10-13T03:32:00;17.30;;;15.27;;
1336;SDS011;662;48.814;9.318;2022-10-13T03:34:25;16.70;;;14.60;;
1336;SDS011;662;48.814;9.318;2022-10-13T03:36:51;17.33;;;15.40;;
1336;SDS011;662;48.814;9.318;2022-10-13T03:39:16;20.43;;;16.50;;
1336;SDS011;662;48.814;9.318;2022-10-13T03:41:42;18.00;;;15.37;;
1336;SDS011;662;48.814;9.318;2022-10-13T03:44:10;21.30;;;16.07;;
1336;SDS011;662;48.814;9.318;2022-10-13T03:46:37;19.87;;;15.70;;
1336;SDS011;662;48.814;9.318;2022-10-13T03:49:02;19.80;;;16.40;;
1336;SDS011;662;48.814;9.318;2022-10-13T03:51:28;18.87;;;16.37;;
1336;SDS011;662;48.814;9.318;2022-10-13T03:53:54;18.57;;;16.57;;
1336;SDS011;662;48.814;9.318;2022-10-13T03:56:20;19.03;;;16.03;;
1336;SDS011;662;48.814;9.318;2022-10-13T03:58:49;17.13;;;14.40;;
1336;SDS011;662;48.814;9.318;2022-10-13T04:01:18;16.10;;;14.23;;
1336;SDS011;662;48.814;9.318;2022-10-13T04:03:49;16.27;;;14.53;;
1336;SDS011;662;48.814;9.318;2022-10-13T04:06:16;19.53;;;15.30;;
1336;SDS011;662;48.814;9.318;2022-10-13T04:08:41;21.93;;;16.13;;
1336;SDS011;662;48.814;9.318;2022-10-13T04:11:09;17.87;;;15.90;;
1336;SDS011;662;48.814;9.318;2022-10-13T04:13:36;24.43;;;15.97;;
1336;SDS011;662;48.814;9.318;2022-10-13T04:16:06;17.63;;;14.80;;
1336;SDS011;662;48.814;9.318;2022-10-13T04:18:33;20.00;;;14.40;;
1336;SDS011;662;48.814;9.318;2022-10-13T04:20:59;19.90;;;15.47;;
1336;SDS011;662;48.814;9.318;2022-10-13T04:23:25;18.90;;;15.43;;
1336;SDS011;662;48.814;9.318;2022-10-13T04:25:51;22.97;;;14.83;;
1336;SDS011;662;48.814;9.318;2022-10-13T04:28:17;16.80;;;14.10;;
1336;SDS011;662;48.814;9.318;2022-10-13T04:30:42;16.83;;;15.03;;
1336;SDS011;662;48.814;9.318;2022-10-13T04:33:08;17.50;;;14.50;;
1336;SDS011;662;48.814;9.318;2022-10-13T04:35:38;17.80;;;13.40;;
1336;SDS011;662;48.814;9.318;2022-10-13T04:38:05;15.20;;;13.60;;
1336;SDS011;662;48.814;9.318;2022-10-13T04:40:30;19.03;;;15.07;;
1336;SDS011;662;48.814;9.318;2022-10-13T04:42:56;18.00;;;14.93;;
1336;SDS011;662;48.814;9.318;2022-10-13T04:45:22;18.57;;;15.87;;
1336;SDS011;662;48.814;9.318;2022-10-13T04:47:47;18.20;;;15.23;;
1336;SDS011;662;48.814;9.318;2022-10-13T04:50:13;20.60;;;14.70;;
1336;SDS011;662;48.814;9.318;2022-10-13T04:52:39;17.07;;;15.00;;
1336;SDS011;662;48.814;9.318;2022-10-13T04:55:04;17.73;;;13.70;;
1336;SDS011;662;48.814;9.318;2022-10-13T04:57:30;18.97;;;15.30;;
1336;SDS011;662;48.814;9.318;2022-10-13T04:59:56;18.43;;;16.53;;
1336;SDS011;662;48.814;9.318;2022-10-13T05:02:21;20.37;;;15.27;;
1336;SDS011;662;48.814;9.318;2022-10-13T05:04:47;19.80;;;14.73;;
1336;SDS011;662;48.814;9.318;2022-10-13T05:07:12;19.50;;;15.70;;
1336;SDS011;662;48.814;9.318;2022-10-13T05:09:38;17.37;;;14.70;;
1336;SDS011;662;48.814;9.318;2022-10-13T05:12:04;21.53;;;15.43;;
1336;SDS011;662;48.814;9.318;2022-10-13T05:14:30;18.03;;;15.60;;
1336;SDS011;662;48.814;9.318;2022-10-13T05:16:57;20.40;;;16.37;;
1336;SDS011;662;48.814;9.318;2022-10-13T05:19:22;20.17;;;17.07;;
1336;SDS011;662;48.814;9.318;2022-10-13T05:21:48;16.43;;;14.73;;
1336;SDS011;662;48.814;9.318;2022-10-13T05:24:14;21.17;;;15.37;;
1336;SDS011;662;48.814;9.318;2022-10-13T05:26:40;19.67;;;16.20;;
1336;SDS011;662;48.814;9.318;2022-10-13T05:29:06;17.43;;;15.17;;
1336;SDS011;662;48.814;9.318;2022-10-13T05:31:32;21.23;;;15.77;;
1336;SDS011;662;48.814;9.318;2022-10-13T05:33:58;19.70;;;15.10;;
1336;SDS011;662;48.814;9.318;2022-10-13T05:36:31;26.10;;;20.50;;
1336;SDS011;662;48.814;9.318;2022-10-13T05:38:59;18.80;;;16.80;;
1336;SDS011;662;48.814;9.318;2022-10-13T05:41:28;19.83;;;17.20;;
1336;SDS011;662;48.814;9.318;2022-10-13T05:44:01;27.97;;;19.33;;
1336;SDS011;662;48.814;9.318;2022-10-13T05:46:33;20.53;;;18.10;;
1336;SDS011;662;48.814;9.318;2022-10-13T05:48:59;21.40;;;16.47;;
1336;SDS011;662;48.814;9.318;2022-10-13T05:51:29;20.93;;;16.60;;
1336;SDS011;662;48.814;9.318;2022-10-13T05:55:00;18.10;;;15.60;;
1336;SDS011;662;48.814;9.318;2022-10-13T05:59:39;22.27;;;16.60;;
1336;SDS011;662;48.814;9.318;2022-10-13T06:02:09;18.23;;;15.67;;
1336;SDS011;662;48.814;9.318;2022-10-13T06:04:39;20.40;;;16.07;;
1336;SDS011;662;48.814;9.318;2022-10-13T06:07:09;19.27;;;16.87;;
1336;SDS011;662;48.814;9.318;2022-10-13T06:09:35;20.07;;;15.10;;
1336;SDS011;662;48.814;9.318;2022-10-13T06:12:03;19.70;;;16.10;;
1336;SDS011;662;48.814;9.318;2022-10-13T06:14:30;17.33;;;15.50;;
1336;SDS011;662;48.814;9.318;2022-10-13T06:16:55;18.93;;;14.33;;
1336;SDS011;662;48.814;9.318;2022-10-13T06:19:21;20.07;;;15.33;;
1336;SDS011;662;48.814;9.318;2022-10-13T06:21:47;16.37;;;13.47;;
1336;SDS011;662;48.814;9.318;2022-10-13T06:24:12;18.60;;;16.70;;
1336;SDS011;662;48.814;9.318;2022-10-13T06:26:38;27.07;;;18.90;;
1336;SDS011;662;48.814;9.318;2022-10-13T06:29:03;24.13;;;20.23;;
1336;SDS011;662;48.814;9.318;2022-10-13T06:31:29;30.63;;;20.07;;
1336;SDS011;662;48.814;9.318;2022-10-13T06:33:54;30.10;;;18.37;;
1336;SDS011;662;48.814;9.318;2022-10-13T06:36:20;32.20;;;19.00;;
1336;SDS011;662;48.814;9.318;2022-10-13T06:38:46;23.80;;;17.83;;
1336;SDS011;662;48.814;9.318;2022-10-13T06:41:11;18.47;;;15.70;;
1336;SDS011;662;48.814;9.318;2022-10-13T06:43:38;19.17;;;16.93;;
1336;SDS011;662;48.814;9.318;2022-10-13T06:46:04;22.27;;;18.67;;
1336;SDS011;662;48.814;9.318;2022-10-13T06:48:29;18.43;;;15.60;;
1336;SDS011;662;48.814;9.318;2022-10-13T06:50:59;21.57;;;16.87;;
1336;SDS011;662;48.814;9.318;2022-10-13T06:53:25;17.87;;;14.93;;
1336;SDS011;662;48.814;9.318;2022-10-13T06:55:54;22.10;;;15.73;;
1336;SDS011;662;48.814;9.318;2022-10-13T06:58:20;24.53;;;18.77;;
1336;SDS011;662;48.814;9.318;2022-10-13T07:00:46;24.23;;;17.23;;
1336;SDS011;662;48.814;9.318;2022-10-13T07:03:11;24.83;;;17.27;;
1336;SDS011;662;48.814;9.318;2022-10-13T07:05:37;19.90;;;17.17;;
1336;SDS011;662;48.814;9.318;2022-10-13T07:08:03;19.90;;;16.27;;
1336;SDS011;662;48.814;9.318;2022-10-13T07:10:28;20.90;;;18.20;;
1336;SDS011;662;48.814;9.318;2022-10-13T07:12:54;18.93;;;16.80;;
1336;SDS011;662;48.814;9.318;2022-10-13T07:15:19;23.17;;;16.23;;
1336;SDS011;662;48.814;9.318;2022-10-13T07:17:45;23.70;;;15.00;;
1336;SDS011;662;48.814;9.318;2022-10-13T07:20:11;20.90;;;18.70;;
1336;SDS011;662;48.814;9.318;2022-10-13T07:22:36;24.07;;;19.40;;
1336;SDS011;662;48.814;9.318;2022-10-13T07:25:02;21.67;;;18.77;;
1336;SDS011;662;48.814;9.318;2022-10-13T07:27:27;20.13;;;17.90;;
1336;SDS011;662;48.814;9.318;2022-10-13T07:29:53;19.13;;;16.53;;
1336;SDS011;662;48.814;9.318;2022-10-13T07:32:19;22.10;;;15.73;;
1336;SDS011;662;48.814;9.318;2022-10-13T07:34:44;19.50;;;15.70;;
1336;SDS011;662;48.814;9.318;2022-10-13T07:37:10;20.43;;;15.80;;
1336;SDS011;662;48.814;9.318;2022-10-13T07:39:35;18.77;;;16.17;;
1336;SDS011;662;48.814;9.318;2022-10-13T07:42:01;21.10;;;15.20;;
1336;SDS011;662;48.814;9.318;2022-10-13T07:44:26;19.00;;;14.43;;
1336;SDS011;662;48.814;9.318;2022-10-13T07:46:52;19.30;;;14.93;;
1336;SDS011;662;48.814;9.318;2022-10-13T07:49:17;23.20;;;14.23;;
1336;SDS011;662;48.814;9.318;2022-10-13T07:51:44;26.87;;;16.20;;
1336;SDS011;662;48.814;9.318;2022-10-13T07:54:09;20.53;;;14.43;;
1336;SDS011;662;48.814;9.318;2022-10-13T07:56:35;17.90;;;13.47;;
1336;SDS011;662;48.814;9.318;2022-10-13T07:59:01;17.03;;;13.43;;
1336;SDS011;662;48.814;9.318;2022-10-13T08:01:28;17.23;;;13.40;;
1336;SDS011;662;48.814;9.318;2022-10-13T08:03:54;21.50;;;14.47;;
1336;SDS011;662;48.814;9.318;2022-10-13T08:06:20;20.53;;;14.00;;
1336;SDS011;662;48.814;9.318;2022-10-13T08:08:46;16.77;;;12.27;;
1336;SDS011;662;48.814;9.318;2022-10-13T08:11:12;18.90;;;12.33;;
1336;SDS011;662;48.814;9.318;2022-10-13T08:13:39;15.53;;;11.43;;
1336;SDS011;662;48.814;9.318;2022-10-13T08:16:04;13.00;;;10.00;;
1336;SDS011;662;48.814;9.318;2022-10-13T08:18:30;12.00;;;10.00;;
1336;SDS011;662;48.814;9.318;2022-10-13T08:20:58;14.13;;;10.17;;
1336;SDS011;662;48.814;9.318;2022-10-13T08:23:25;11.63;;;10.10;;
1336;SDS011;662;48.814;9.318;2022-10-13T08:25:50;13.83;;;10.30;;
1336;SDS011;662;48.814;9.318;2022-10-13T08:28:17;16.93;;;12.13;;
1336;SDS011;662;48.814;9.318;2022-10-13T08:30:44;15.47;;;11.90;;
1336;SDS011;662;48.814;9.318;2022-10-13T08:33:10;14.10;;;12.23;;
1336;SDS011;662;48.814;9.318;2022-10-13T08:35:36;15.93;;;11.80;;
1336;SDS011;662;48.814;9.318;2022-10-13T08:38:02;17.60;;;12.30;;
1336;SDS011;662;48.814;9.318;2022-10-13T08:40:28;18.40;;;11.93;;
1336;SDS011;662;48.814;9.318;2022-10-13T08:42:53;16.93;;;12.03;;
1336;SDS011;662;48.814;9.318;2022-10-13T08:45:20;13.57;;;11.47;;
1336;SDS011;662;48.814;9.318;2022-10-13T08:47:54;16.27;;;11.30;;
1336;SDS011;662;48.814;9.318;2022-10-13T08:50:31;18.43;;;12.07;;
1336;SDS011;662;48.814;9.318;2022-10-13T08:53:13;13.00;;;9.80;;
1336;SDS011;662;48.814;9.318;2022-10-13T08:55:56;14.20;;;10.57;;
1336;SDS011;662;48.814;9.318;2022-10-13T08:58:29;23.90;;;10.73;;
1336;SDS011;662;48.814;9.318;2022-10-13T09:03:26;12.00;;;10.13;;
1336;SDS011;662;48.814;9.318;2022-10-13T09:08:36;15.60;;;9.83;;
1336;SDS011;662;48.814;9.318;2022-10-13T09:11:14;10.03;;;9.07;;
1336;SDS011;662;48.814;9.318;2022-10-13T09:13:40;17.50;;;10.30;;
1336;SDS011;662;48.814;9.318;2022-10-13T09:16:05;12.33;;;9.90;;
1336;SDS011;662;48.814;9.318;2022-10-13T09:18:32;9.63;;;8.67;;
1336;SDS011;662;48.814;9.318;2022-10-13T09:23:45;10.40;;;8.27;;
1336;SDS011;662;48.814;9.318;2022-10-13T09:26:18;18.17;;;10.80;;
1336;SDS011;662;48.814;9.318;2022-10-13T09:28:46;10.13;;;8.00;;
1336;SDS011;662;48.814;9.318;2022-10-13T09:31:17;10.20;;;7.40;;
1336;SDS011;662;48.814;9.318;2022-10-13T09:34:01;9.10;;;6.90;;
1336;SDS011;662;48.814;9.318;2022-10-13T09:36:37;8.57;;;7.27;;
1336;SDS011;662;48.814;9.318;2022-10-13T09:39:04;8.57;;;7.53;;
1336;SDS011;662;48.814;9.318;2022-10-13T09:41:41;13.50;;;8.00;;
1336;SDS011;662;48.814;9.318;2022-10-13T09:44:09;8.20;;;7.40;;
1336;SDS011;662;48.814;9.318;2022-10-13T09:46:56;10.47;;;7.37;;
1336;SDS011;662;48.814;9.318;2022-10-13T09:49:43;14.30;;;7.63;;
1336;SDS011;662;48.814;9.318;2022-10-13T10:00:16;8.10;;;7.30;;
1336;SDS011;662;48.814;9.318;2022-10-13T10:05:55;11.50;;;8.57;;
1336;SDS011;662;48.814;9.318;2022-10-13T10:08:25;11.33;;;8.20;;
1336;SDS011;662;48.814;9.318;2022-10-13T10:10:52;21.17;;;8.30;;
1336;SDS011;662;48.814;9.318;2022-10-13T10:13:19;12.50;;;9.33;;
1336;SDS011;662;48.814;9.318;2022-10-13T10:15:52;11.43;;;7.80;;
1336;SDS011;662;48.814;9.318;2022-10-13T10:21:07;12.93;;;9.30;;
1336;SDS011;662;48.814;9.318;2022-10-13T10:26:05;12.17;;;9.20;;
1336;SDS011;662;48.814;9.318;2022-10-13T10:28:48;11.00;;;8.50;;
1336;SDS011;662;48.814;9.318;2022-10-13T10:31:37;9.47;;;7.70;;
1336;SDS011;662;48.814;9.318;2022-10-13T10:34:35;13.03;;;8.87;;
1336;SDS011;662;48.814;9.318;2022-10-13T10:37:16;14.00;;;9.40;;
1336;SDS011;662;48.814;9.318;2022-10-13T10:39:50;11.90;;;9.27;;
1336;SDS011;662;48.814;9.318;2022-10-13T10:42:36;12.80;;;9.10;;
1336;SDS011;662;48.814;9.318;2022-10-13T10:45:13;12.83;;;9.50;;
1336;SDS011;662;48.814;9.318;2022-10-13T10:47:42;18.63;;;12.93;;
1336;SDS011;662;48.814;9.318;2022-10-13T10:50:12;14.93;;;10.50;;
1336;SDS011;662;48.814;9.318;2022-10-13T10:55:38;9.93;;;7.93;;
1336;SDS011;662;48.814;9.318;2022-10-13T11:00:54;11.30;;;8.97;;
1336;SDS011;662;48.814;9.318;2022-10-13T11:08:45;13.87;;;11.50;;
1336;SDS011;662;48.814;9.318;2022-10-13T11:13:50;9.60;;;8.33;;
1336;SDS011;662;48.814;9.318;2022-10-13T11:16:31;18.03;;;12.10;;
1336;SDS011;662;48.814;9.318;2022-10-13T11:37:41;9.50;;;7.97;;
1336;SDS011;662;48.814;9.318;2022-10-13T11:43:02;14.70;;;7.90;;
1336;SDS011;662;48.814;9.318;2022-10-13T11:45:49;10.90;;;7.80;;
1336;SDS011;662;48.814;9.318;2022-10-13T11:51:22;14.93;;;8.20;;
1336;SDS011;662;48.814;9.318;2022-10-13T11:54:03;9.53;;;7.33;;
1336;SDS011;662;48.814;9.318;2022-10-13T11:56:50;12.77;;;7.83;;
1336;SDS011;662;48.814;9.318;2022-10-13T12:02:13;15.53;;;10.70;;
1336;SDS011;662;48.814;9.318;2022-10-13T12:04:40;11.93;;;9.13;;
1336;SDS011;662;48.814;9.318;2022-10-13T12:07:11;9.57;;;6.20;;
1336;SDS011;662;48.814;9.318;2022-10-13T12:09:49;11.87;;;7.40;;
1336;SDS011;662;48.814;9.318;2022-10-13T12:12:19;10.90;;;7.60;;
1336;SDS011;662;48.814;9.318;2022-10-13T12:14:47;11.50;;;6.70;;
1336;SDS011;662;48.814;9.318;2022-10-13T12:19:50;8.83;;;7.10;;
1336;SDS011;662;48.814;9.318;2022-10-13T12:22:21;10.40;;;7.23;;
1336;SDS011;662;48.814;9.318;2022-10-13T12:24:57;10.50;;;6.97;;
1336;SDS011;662;48.814;9.318;2022-10-13T12:27:29;8.03;;;6.43;;
1336;SDS011;662;48.814;9.318;2022-10-13T12:30:02;10.63;;;6.37;;
1336;SDS011;662;48.814;9.318;2022-10-13T12:32:29;12.43;;;6.90;;
1336;SDS011;662;48.814;9.318;2022-10-13T12:37:43;7.37;;;5.77;;
1336;SDS011;662;48.814;9.318;2022-10-13T12:40:12;12.53;;;6.33;;
1336;SDS011;662;48.814;9.318;2022-10-13T12:42:38;11.83;;;6.87;;
1336;SDS011;662;48.814;9.318;2022-10-13T12:45:05;7.37;;;6.10;;
1336;SDS011;662;48.814;9.318;2022-10-13T12:55:27;8.00;;;5.97;;
1336;SDS011;662;48.814;9.318;2022-10-13T12:57:54;12.10;;;6.20;;
1336;SDS011;662;48.814;9.318;2022-10-13T13:00:22;12.37;;;6.40;;
1336;SDS011;662;48.814;9.318;2022-10-13T13:05:29;6.43;;;5.50;;
1336;SDS011;662;48.814;9.318;2022-10-13T13:08:04;5.73;;;5.13;;
1336;SDS011;662;48.814;9.318;2022-10-13T13:13:20;10.03;;;5.77;;
1336;SDS011;662;48.814;9.318;2022-10-13T13:15:47;7.03;;;5.97;;
1336;SDS011;662;48.814;9.318;2022-10-13T13:20:54;8.20;;;6.00;;
1336;SDS011;662;48.814;9.318;2022-10-13T13:23:20;11.23;;;6.20;;
1336;SDS011;662;48.814;9.318;2022-10-13T13:25:47;10.40;;;8.10;;
1336;SDS011;662;48.814;9.318;2022-10-13T13:28:30;8.93;;;7.00;;
1336;SDS011;662;48.814;9.318;2022-10-13T13:30:56;9.33;;;7.10;;
1336;SDS011;662;48.814;9.318;2022-10-13T13:33:22;8.33;;;6.67;;
1336;SDS011;662;48.814;9.318;2022-10-13T13:35:48;7.93;;;6.77;;
1336;SDS011;662;48.814;9.318;2022-10-13T13:38:14;8.50;;;5.83;;
1336;SDS011;662;48.814;9.318;2022-10-13T13:40:39;11.03;;;5.83;;
1336;SDS011;662;48.814;9.318;2022-10-13T13:43:05;8.07;;;5.37;;
1336;SDS011;662;48.814;9.318;2022-10-13T13:45:32;6.50;;;5.50;;
1336;SDS011;662;48.814;9.318;2022-10-13T13:47:59;11.80;;;6.00;;
1336;SDS011;662;48.814;9.318;2022-10-13T13:50:25;9.73;;;6.60;;
1336;SDS011;662;48.814;9.318;2022-10-13T13:52:55;8.53;;;6.73;;
1336;SDS011;662;48.814;9.318;2022-10-13T13:55:21;6.30;;;5.70;;
1336;SDS011;662;48.814;9.318;2022-10-13T13:57:47;12.50;;;6.40;;
1336;SDS011;662;48.814;9.318;2022-10-13T14:00:13;7.43;;;6.00;;
1336;SDS011;662;48.814;9.318;2022-10-13T14:02:40;11.10;;;6.83;;
1336;SDS011;662;48.814;9.318;2022-10-13T14:05:07;13.63;;;6.70;;
1336;SDS011;662;48.814;9.318;2022-10-13T14:07:33;10.93;;;6.57;;
1336;SDS011;662;48.814;9.318;2022-10-13T14:09:59;6.70;;;5.60;;
1336;SDS011;662;48.814;9.318;2022-10-13T14:12:24;13.20;;;9.40;;
1336;SDS011;662;48.814;9.318;2022-10-13T14:14:50;11.77;;;8.20;;
1336;SDS011;662;48.814;9.318;2022-10-13T14:17:16;9.37;;;7.10;;
1336;SDS011;662;48.814;9.318;2022-10-13T14:19:41;11.80;;;7.40;;
1336;SDS011;662;48.814;9.318;2022-10-13T14:22:07;8.03;;;6.37;;
1336;SDS011;662;48.814;9.318;2022-10-13T14:24:32;9.90;;;6.70;;
1336;SDS011;662;48.814;9.318;2022-10-13T14:26:58;17.30;;;9.50;;
1336;SDS011;662;48.814;9.318;2022-10-13T14:29:24;10.97;;;8.33;;
1336;SDS011;662;48.814;9.318;2022-10-13T14:31:49;9.50;;;6.63;;
1336;SDS011;662;48.814;9.318;2022-10-13T14:34:15;7.83;;;6.63;;
1336;SDS011;662;48.814;9.318;2022-10-13T14:36:41;7.50;;;6.07;;
1336;SDS011;662;48.814;9.318;2022-10-13T14:39:06;8.10;;;5.90;;
1336;SDS011;662;48.814;9.318;2022-10-13T14:41:32;10.63;;;6.43;;
1336;SDS011;662;48.814;9.318;2022-10-13T14:43:57;9.20;;;6.70;;
1336;SDS011;662;48.814;9.318;2022-10-13T14:46:23;7.97;;;7.20;;
1336;SDS011;662;48.814;9.318;2022-10-13T14:48:49;10.27;;;6.13;;
1336;SDS011;662;48.814;9.318;2022-10-13T14:51:14;10.20;;;7.10;;
1336;SDS011;662;48.814;9.318;2022-10-13T14:53:41;9.63;;;6.53;;
1336;SDS011;662;48.814;9.318;2022-10-13T14:56:18;11.47;;;6.00;;
1336;SDS011;662;48.814;9.318;2022-10-13T14:58:47;12.23;;;6.70;;
1336;SDS011;662;48.814;9.318;2022-10-13T15:01:13;8.57;;;6.70;;
1336;SDS011;662;48.814;9.318;2022-10-13T15:03:39;8.50;;;7.53;;
1336;SDS011;662;48.814;9.318;2022-10-13T15:06:05;9.23;;;6.70;;
1336;SDS011;662;48.814;9.318;2022-10-13T15:08:31;10.17;;;6.67;;
1336;SDS011;662;48.814;9.318;2022-10-13T15:11:00;8.57;;;5.93;;
1336;SDS011;662;48.814;9.318;2022-10-13T15:13:26;9.43;;;6.50;;
1336;SDS011;662;48.814;9.318;2022-10-13T15:15:52;9.60;;;7.57;;
1336;SDS011;662;48.814;9.318;2022-10-13T15:18:18;13.20;;;8.10;;
1336;SDS011;662;48.814;9.318;2022-10-13T15:20:44;14.47;;;7.77;;
1336;SDS011;662;48.814;9.318;2022-10-13T15:23:13;17.90;;;10.43;;
1336;SDS011;662;48.814;9.318;2022-10-13T15:25:39;13.40;;;9.00;;
1336;SDS011;662;48.814;9.318;2022-10-13T15:28:13;21.00;;;13.17;;
1336;SDS011;662;48.814;9.318;2022-10-13T15:30:39;15.13;;;12.13;;
1336;SDS011;662;48.814;9.318;2022-10-13T15:33:05;26.50;;;12.63;;
1336;SDS011;662;48.814;9.318;2022-10-13T15:35:30;14.43;;;11.27;;
1336;SDS011;662;48.814;9.318;2022-10-13T15:37:56;13.27;;;10.20;;
1336;SDS011;662;48.814;9.318;2022-10-13T15:40:22;14.17;;;9.60;;
1336;SDS011;662;48.814;9.318;2022-10-13T15:42:48;11.87;;;10.03;;
1336;SDS011;662;48.814;9.318;2022-10-13T15:45:13;14.80;;;10.37;;
1336;SDS011;662;48.814;9.318;2022-10-13T15:47:39;16.47;;;9.97;;
1336;SDS011;662;48.814;9.318;2022-10-13T15:50:05;11.90;;;10.10;;
1336;SDS011;662;48.814;9.318;2022-10-13T15:52:32;13.50;;;10.47;;
1336;SDS011;662;48.814;9.318;2022-10-13T15:55:02;12.50;;;10.07;;
1336;SDS011;662;48.814;9.318;2022-10-13T15:57:29;15.43;;;10.90;;
1336;SDS011;662;48.814;9.318;2022-10-13T15:59:55;17.37;;;10.33;;
1336;SDS011;662;48.814;9.318;2022-10-13T16:02:20;12.83;;;10.13;;
1336;SDS011;662;48.814;9.318;2022-10-13T16:04:48;13.93;;;10.63;;
1336;SDS011;662;48.814;9.318;2022-10-13T16:07:13;17.00;;;9.40;;
1336;SDS011;662;48.814;9.318;2022-10-13T16:09:39;13.93;;;9.67;;
1336;SDS011;662;48.814;9.318;2022-10-13T16:12:05;12.33;;;10.13;;
1336;SDS011;662;48.814;9.318;2022-10-13T16:14:30;15.77;;;11.40;;
1336;SDS011;662;48.814;9.318;2022-10-13T16:16:56;11.30;;;10.10;;
1336;SDS011;662;48.814;9.318;2022-10-13T16:19:21;15.43;;;10.90;;
1336;SDS011;662;48.814;9.318;2022-10-13T16:21:47;16.00;;;11.37;;
1336;SDS011;662;48.814;9.318;2022-10-13T16:24:12;12.87;;;10.47;;
1336;SDS011;662;48.814;9.318;2022-10-13T16:26:38;16.70;;;10.60;;
1336;SDS011;662;48.814;9.318;2022-10-13T16:29:03;18.50;;;11.40;;
1336;SDS011;662;48.814;9.318;2022-10-13T16:31:29;14.67;;;11.30;;
1336;SDS011;662;48.814;9.318;2022-10-13T16:33:55;19.03;;;12.53;;
1336;SDS011;662;48.814;9.318;2022-10-13T16:36:20;12.13;;;10.93;;
1336;SDS011;662;48.814;9.318;2022-10-13T16:38:46;14.40;;;11.47;;
1336;SDS011;662;48.814;9.318;2022-10-13T16:41:13;16.57;;;13.80;;
1336;SDS011;662;48.814;9.318;2022-10-13T16:43:40;19.30;;;14.40;;
1336;SDS011;662;48.814;9.318;2022-10-13T16:46:08;19.57;;;13.60;;
1336;SDS011;662;48.814;9.318;2022-10-13T16:48:37;16.93;;;13.90;;
1336;SDS011;662;48.814;9.318;2022-10-13T16:51:04;15.00;;;12.30;;
1336;SDS011;662;48.814;9.318;2022-10-13T16:53:32;19.57;;;13.30;;
1336;SDS011;662;48.814;9.318;2022-10-13T16:55:58;16.47;;;13.97;;
1336;SDS011;662;48.814;9.318;2022-10-13T16:58:24;13.70;;;12.30;;
1336;SDS011;662;48.814;9.318;2022-10-13T17:00:50;22.57;;;14.70;;
1336;SDS011;662;48.814;9.318;2022-10-13T17:03:16;25.33;;;15.97;;
1336;SDS011;662;48.814;9.318;2022-10-13T17:05:41;26.93;;;15.10;;
1336;SDS011;662;48.814;9.318;2022-10-13T17:08:08;18.80;;;15.30;;
1336;SDS011;662;48.814;9.318;2022-10-13T17:10:34;18.43;;;16.63;;